AEA45L EDDV-EDDM
Flight info
| Callsign | AEA45L |
|---|---|
| Flight time | 0h 54m |
| Altitude | 29000 |
| Route | POVEL4F POVEL Z94 GALMA T703 LULAR T105 LANDU LANDU2B |
| Aircraft | B738/M-SDE2E3FGHIRWXY/LB1 |
Departure
| Time | 2026-05-04 18:37 |
|---|---|
| Airport | Hannover Airport (EDDV) |
Arrival
| Time | 2026-05-04 19:32 |
|---|---|
| Airport | Munich Airport (EDDM) |
| Time | Latitude | Longitude | Altitude | Speed | Heading |
|---|---|---|---|---|---|
| 2026-05-04 18:05 | 52.45772 | 9.69584 | 191 ft | 0 kts | 52° |
| 2026-05-04 18:26 | 52.45769 | 9.69579 | 191 ft | 2 kts | 52° |
| 2026-05-04 18:27 | 52.45760 | 9.69560 | 191 ft | 2 kts | 52° |
| 2026-05-04 18:27 | 52.45751 | 9.69540 | 191 ft | 2 kts | 52° |
| 2026-05-04 18:27 | 52.45742 | 9.69521 | 191 ft | 2 kts | 52° |
| 2026-05-04 18:27 | 52.45733 | 9.69500 | 191 ft | 2 kts | 80° |
| 2026-05-04 18:28 | 52.45734 | 9.69475 | 191 ft | 2 kts | 112° |
| 2026-05-04 18:28 | 52.45741 | 9.69457 | 191 ft | 0 kts | 140° |
| 2026-05-04 18:28 | 52.45742 | 9.69457 | 191 ft | 1 kts | 136° |
| 2026-05-04 18:28 | 52.45731 | 9.69472 | 191 ft | 1 kts | 148° |
| 2026-05-04 18:29 | 52.45729 | 9.69474 | 191 ft | 0 kts | 148° |
| 2026-05-04 18:31 | 52.45725 | 9.69478 | 191 ft | 4 kts | 148° |
| 2026-05-04 18:32 | 52.45684 | 9.69554 | 191 ft | 10 kts | 105° |
| 2026-05-04 18:32 | 52.45676 | 9.69709 | 191 ft | 14 kts | 95° |
| 2026-05-04 18:32 | 52.45632 | 9.69841 | 191 ft | 13 kts | 137° |
| 2026-05-04 18:32 | 52.45600 | 9.69973 | 191 ft | 14 kts | 94° |
| 2026-05-04 18:33 | 52.45594 | 9.70148 | 191 ft | 15 kts | 93° |
| 2026-05-04 18:33 | 52.45591 | 9.70320 | 191 ft | 16 kts | 92° |
| 2026-05-04 18:33 | 52.45584 | 9.70531 | 191 ft | 20 kts | 93° |
| 2026-05-04 18:33 | 52.45577 | 9.70799 | 191 ft | 24 kts | 92° |
| 2026-05-04 18:34 | 52.45554 | 9.71048 | 191 ft | 19 kts | 124° |
| 2026-05-04 18:34 | 52.45513 | 9.71101 | 191 ft | 0 kts | 163° |
| 2026-05-04 18:34 | 52.45505 | 9.71104 | 191 ft | 0 kts | 168° |
| 2026-05-04 18:34 | 52.45504 | 9.71104 | 191 ft | 0 kts | 168° |
| 2026-05-04 18:35 | 52.45503 | 9.71105 | 191 ft | 2 kts | 168° |
| 2026-05-04 18:36 | 52.45432 | 9.71109 | 191 ft | 10 kts | 188° |
| 2026-05-04 18:36 | 52.45405 | 9.71065 | 191 ft | 4 kts | 257° |
| 2026-05-04 18:36 | 52.45404 | 9.71039 | 191 ft | 0 kts | 271° |
| 2026-05-04 18:36 | 52.45410 | 9.70793 | 191 ft | 57 kts | 273° |
| 2026-05-04 18:37 | 52.45441 | 9.69738 | 191 ft | 125 kts | 273° |
| 2026-05-04 18:37 | 52.45486 | 9.68017 | 240 ft | 173 kts | 272° |
| 2026-05-04 18:37 | 52.45521 | 9.66051 | 949 ft | 173 kts | 275° |
| 2026-05-04 18:37 | 52.45604 | 9.64095 | 1706 ft | 174 kts | 279° |
| 2026-05-04 18:38 | 52.45710 | 9.62141 | 2288 ft | 180 kts | 277° |
| 2026-05-04 18:38 | 52.45784 | 9.60003 | 2697 ft | 196 kts | 273° |
| 2026-05-04 18:38 | 52.45792 | 9.57680 | 3157 ft | 212 kts | 272° |
| 2026-05-04 18:38 | 52.45690 | 9.55240 | 3742 ft | 221 kts | 258° |
| 2026-05-04 18:39 | 52.44989 | 9.53007 | 3998 ft | 226 kts | 228° |
| 2026-05-04 18:39 | 52.43708 | 9.51509 | 3992 ft | 225 kts | 210° |
| 2026-05-04 18:39 | 52.42340 | 9.50325 | 3988 ft | 223 kts | 210° |
| 2026-05-04 18:39 | 52.40986 | 9.49098 | 3990 ft | 225 kts | 212° |
| 2026-05-04 18:40 | 52.39581 | 9.47770 | 4261 ft | 239 kts | 211° |
| 2026-05-04 18:40 | 52.38128 | 9.46764 | 5293 ft | 227 kts | 195° |
| 2026-05-04 18:40 | 52.36589 | 9.46813 | 6060 ft | 229 kts | 165° |
| 2026-05-04 18:40 | 52.35242 | 9.48172 | 6746 ft | 235 kts | 131° |
| 2026-05-04 18:41 | 52.34625 | 9.50628 | 7332 ft | 245 kts | 97° |
| 2026-05-04 18:41 | 52.34640 | 9.53485 | 7749 ft | 261 kts | 89° |
| 2026-05-04 18:41 | 52.34607 | 9.56534 | 8131 ft | 277 kts | 102° |
| 2026-05-04 18:41 | 52.33838 | 9.59469 | 8621 ft | 285 kts | 128° |
| 2026-05-04 18:42 | 52.32583 | 9.61933 | 9302 ft | 288 kts | 135° |
| 2026-05-04 18:42 | 52.31220 | 9.64374 | 9862 ft | 294 kts | 134° |
| 2026-05-04 18:42 | 52.29871 | 9.66886 | 9953 ft | 294 kts | 133° |
| 2026-05-04 18:42 | 52.28565 | 9.69448 | 9958 ft | 294 kts | 131° |
| 2026-05-04 18:43 | 52.27295 | 9.72035 | 9975 ft | 291 kts | 131° |
| 2026-05-04 18:43 | 52.26060 | 9.74580 | 9967 ft | 290 kts | 131° |
| 2026-05-04 18:43 | 52.24785 | 9.77212 | 9997 ft | 300 kts | 131° |
| 2026-05-04 18:43 | 52.23466 | 9.79911 | 10334 ft | 317 kts | 131° |
| 2026-05-04 18:44 | 52.22041 | 9.82823 | 10701 ft | 334 kts | 131° |
| 2026-05-04 18:44 | 52.21060 | 9.84821 | 10962 ft | 344 kts | 131° |
| 2026-05-04 18:44 | 52.19012 | 9.88990 | 11457 ft | 364 kts | 131° |
| 2026-05-04 18:44 | 52.17392 | 9.92285 | 11868 ft | 378 kts | 131° |
| 2026-05-04 18:45 | 52.15718 | 9.95687 | 12528 ft | 384 kts | 131° |
| 2026-05-04 18:45 | 52.14052 | 9.99068 | 13256 ft | 388 kts | 131° |
| 2026-05-04 18:45 | 52.12390 | 10.02438 | 14205 ft | 383 kts | 131° |
| 2026-05-04 18:45 | 52.10809 | 10.05652 | 15143 ft | 346 kts | 131° |
| 2026-05-04 18:46 | 52.09378 | 10.08566 | 16135 ft | 319 kts | 131° |
| 2026-05-04 18:46 | 52.08030 | 10.11289 | 17159 ft | 303 kts | 132° |
| 2026-05-04 18:46 | 52.06733 | 10.13894 | 17927 ft | 300 kts | 133° |
| 2026-05-04 18:46 | 52.05410 | 10.16534 | 18427 ft | 308 kts | 133° |
| 2026-05-04 18:47 | 52.04022 | 10.19299 | 18770 ft | 321 kts | 133° |
| 2026-05-04 18:47 | 52.02586 | 10.22161 | 19107 ft | 333 kts | 132° |
| 2026-05-04 18:47 | 52.01120 | 10.25092 | 19692 ft | 338 kts | 132° |
| 2026-05-04 18:47 | 51.99636 | 10.28060 | 20240 ft | 343 kts | 132° |
| 2026-05-04 18:48 | 51.98129 | 10.31074 | 20857 ft | 345 kts | 132° |
| 2026-05-04 18:48 | 51.96602 | 10.34124 | 21296 ft | 353 kts | 133° |
| 2026-05-04 18:48 | 51.95042 | 10.37231 | 21675 ft | 362 kts | 133° |
| 2026-05-04 18:48 | 51.93445 | 10.40408 | 22056 ft | 370 kts | 132° |
| 2026-05-04 18:49 | 51.91807 | 10.43662 | 22384 ft | 380 kts | 132° |
| 2026-05-04 18:49 | 51.90102 | 10.47044 | 22646 ft | 392 kts | 132° |
| 2026-05-04 18:49 | 51.88364 | 10.50485 | 22899 ft | 403 kts | 131° |
| 2026-05-04 18:49 | 51.86555 | 10.54064 | 23159 ft | 415 kts | 131° |
| 2026-05-04 18:50 | 51.84682 | 10.57766 | 23413 ft | 426 kts | 131° |
| 2026-05-04 18:50 | 51.82776 | 10.61530 | 23679 ft | 437 kts | 131° |
| 2026-05-04 18:50 | 51.80820 | 10.65389 | 23943 ft | 447 kts | 133° |
| 2026-05-04 18:50 | 51.78836 | 10.69298 | 24204 ft | 458 kts | 132° |
| 2026-05-04 18:51 | 51.76782 | 10.73339 | 24462 ft | 464 kts | 133° |
| 2026-05-04 18:51 | 51.74734 | 10.77368 | 24744 ft | 467 kts | 133° |
| 2026-05-04 18:51 | 51.72689 | 10.81386 | 25344 ft | 469 kts | 133° |
| 2026-05-04 18:51 | 51.70604 | 10.85477 | 25843 ft | 472 kts | 133° |
| 2026-05-04 18:52 | 51.68525 | 10.89548 | 26339 ft | 475 kts | 133° |
| 2026-05-04 18:52 | 51.66417 | 10.93667 | 26838 ft | 478 kts | 133° |
| 2026-05-04 18:52 | 51.64305 | 10.97788 | 27506 ft | 476 kts | 133° |
| 2026-05-04 18:52 | 51.62207 | 11.01880 | 28224 ft | 473 kts | 133° |
| 2026-05-04 18:53 | 51.60130 | 11.05921 | 28781 ft | 474 kts | 133° |
| 2026-05-04 18:53 | 51.58015 | 11.10025 | 28926 ft | 477 kts | 133° |
| 2026-05-04 18:53 | 51.55903 | 11.14115 | 28935 ft | 473 kts | 133° |
| 2026-05-04 18:54 | 51.51741 | 11.22159 | 28930 ft | 472 kts | 133° |
| 2026-05-04 18:54 | 51.47548 | 11.30235 | 28931 ft | 472 kts | 133° |
| 2026-05-04 18:55 | 51.43328 | 11.38310 | 28930 ft | 471 kts | 134° |
| 2026-05-04 18:55 | 51.38717 | 11.45587 | 28931 ft | 464 kts | 147° |
| 2026-05-04 18:55 | 51.36066 | 11.48432 | 28932 ft | 461 kts | 153° |
| 2026-05-04 18:56 | 51.30474 | 11.53323 | 28929 ft | 459 kts | 156° |
| 2026-05-04 18:56 | 51.24756 | 11.57854 | 28926 ft | 458 kts | 160° |
| 2026-05-04 18:57 | 51.18731 | 11.60620 | 28933 ft | 450 kts | 172° |
| 2026-05-04 18:57 | 51.12568 | 11.62260 | 28930 ft | 451 kts | 174° |
| 2026-05-04 18:58 | 51.06372 | 11.63880 | 28934 ft | 451 kts | 173° |
| 2026-05-04 18:58 | 51.00180 | 11.65649 | 28932 ft | 451 kts | 173° |
| 2026-05-04 18:59 | 50.94009 | 11.67534 | 28938 ft | 451 kts | 173° |
| 2026-05-04 18:59 | 50.87896 | 11.69464 | 28935 ft | 452 kts | 172° |
| 2026-05-04 19:00 | 50.81726 | 11.71437 | 28937 ft | 452 kts | 172° |
| 2026-05-04 19:00 | 50.75542 | 11.73422 | 28939 ft | 453 kts | 172° |
| 2026-05-04 19:01 | 50.69387 | 11.75397 | 28940 ft | 453 kts | 172° |
| 2026-05-04 19:01 | 50.63260 | 11.77359 | 28937 ft | 453 kts | 172° |
| 2026-05-04 19:02 | 50.57069 | 11.79336 | 28948 ft | 454 kts | 172° |
| 2026-05-04 19:02 | 50.50904 | 11.81302 | 28942 ft | 453 kts | 172° |
| 2026-05-04 19:03 | 50.44796 | 11.83851 | 28947 ft | 457 kts | 164° |
| 2026-05-04 19:03 | 50.38884 | 11.87540 | 28947 ft | 459 kts | 160° |
| 2026-05-04 19:04 | 50.33015 | 11.91588 | 28955 ft | 460 kts | 159° |
| 2026-05-04 19:04 | 50.27179 | 11.95635 | 28957 ft | 460 kts | 159° |
| 2026-05-04 19:05 | 50.21318 | 11.99647 | 28953 ft | 461 kts | 159° |
| 2026-05-04 19:05 | 50.15438 | 12.03628 | 28950 ft | 461 kts | 160° |
| 2026-05-04 19:06 | 50.09569 | 12.07573 | 28939 ft | 461 kts | 159° |
| 2026-05-04 19:06 | 50.03679 | 12.11511 | 28938 ft | 461 kts | 159° |
| 2026-05-04 19:07 | 49.97807 | 12.15420 | 28942 ft | 461 kts | 159° |
| 2026-05-04 19:07 | 49.94850 | 12.17382 | 28752 ft | 463 kts | 159° |
| 2026-05-04 19:07 | 49.91910 | 12.19333 | 28478 ft | 460 kts | 159° |
| 2026-05-04 19:08 | 49.88983 | 12.21272 | 28205 ft | 458 kts | 159° |
| 2026-05-04 19:08 | 49.86039 | 12.23220 | 27933 ft | 459 kts | 159° |
| 2026-05-04 19:08 | 49.83116 | 12.25151 | 27663 ft | 461 kts | 159° |
| 2026-05-04 19:08 | 49.80186 | 12.27084 | 27392 ft | 461 kts | 159° |
| 2026-05-04 19:09 | 49.77204 | 12.29049 | 27117 ft | 462 kts | 159° |
| 2026-05-04 19:09 | 49.74295 | 12.31106 | 26843 ft | 464 kts | 156° |
| 2026-05-04 19:09 | 49.71476 | 12.33491 | 26441 ft | 466 kts | 151° |
| 2026-05-04 19:09 | 49.68745 | 12.36237 | 26034 ft | 467 kts | 147° |
| 2026-05-04 19:10 | 49.66134 | 12.39122 | 25642 ft | 468 kts | 145° |
| 2026-05-04 19:10 | 49.63543 | 12.42126 | 25245 ft | 469 kts | 144° |
| 2026-05-04 19:10 | 49.60944 | 12.45207 | 24839 ft | 466 kts | 144° |
| 2026-05-04 19:10 | 49.58401 | 12.48241 | 24435 ft | 462 kts | 144° |
| 2026-05-04 19:11 | 49.55901 | 12.51218 | 24107 ft | 457 kts | 144° |
| 2026-05-04 19:11 | 49.53426 | 12.54151 | 23798 ft | 445 kts | 144° |
| 2026-05-04 19:11 | 49.50997 | 12.57014 | 23395 ft | 436 kts | 144° |
| 2026-05-04 19:11 | 49.48601 | 12.59820 | 23002 ft | 427 kts | 144° |
| 2026-05-04 19:12 | 49.46285 | 12.62506 | 22622 ft | 419 kts | 146° |
| 2026-05-04 19:12 | 49.41225 | 12.66414 | 21846 ft | 398 kts | 166° |
| 2026-05-04 19:12 | 49.38557 | 12.67214 | 21464 ft | 387 kts | 177° |
| 2026-05-04 19:13 | 49.35885 | 12.67227 | 21070 ft | 377 kts | 188° |
| 2026-05-04 19:13 | 49.33364 | 12.66478 | 20690 ft | 368 kts | 199° |
| 2026-05-04 19:13 | 49.30971 | 12.65169 | 20311 ft | 363 kts | 202° |
| 2026-05-04 19:13 | 49.28619 | 12.63859 | 19867 ft | 363 kts | 201° |
| 2026-05-04 19:14 | 49.26232 | 12.62578 | 19402 ft | 361 kts | 201° |
| 2026-05-04 19:14 | 49.23893 | 12.61340 | 18951 ft | 356 kts | 201° |
| 2026-05-04 19:14 | 49.21541 | 12.60098 | 18499 ft | 354 kts | 201° |
| 2026-05-04 19:14 | 49.19244 | 12.58883 | 18052 ft | 352 kts | 201° |
| 2026-05-04 19:15 | 49.16963 | 12.57673 | 17610 ft | 349 kts | 201° |
| 2026-05-04 19:15 | 49.14669 | 12.56452 | 17160 ft | 346 kts | 201° |
| 2026-05-04 19:15 | 49.12411 | 12.55248 | 16709 ft | 343 kts | 201° |
| 2026-05-04 19:15 | 49.10171 | 12.54054 | 16264 ft | 340 kts | 201° |
| 2026-05-04 19:16 | 49.07977 | 12.52886 | 15819 ft | 336 kts | 201° |
| 2026-05-04 19:16 | 49.05765 | 12.51709 | 15365 ft | 333 kts | 201° |
| 2026-05-04 19:16 | 49.03595 | 12.50554 | 14923 ft | 329 kts | 201° |
| 2026-05-04 19:16 | 49.01464 | 12.49421 | 14486 ft | 326 kts | 201° |
| 2026-05-04 19:17 | 48.99345 | 12.48296 | 14042 ft | 323 kts | 201° |
| 2026-05-04 19:17 | 48.97194 | 12.47154 | 13587 ft | 320 kts | 201° |
| 2026-05-04 19:17 | 48.95108 | 12.46048 | 13141 ft | 318 kts | 201° |
| 2026-05-04 19:17 | 48.93031 | 12.44947 | 12697 ft | 315 kts | 200° |
| 2026-05-04 19:18 | 48.90984 | 12.43862 | 12324 ft | 311 kts | 200° |
| 2026-05-04 19:18 | 48.88936 | 12.42778 | 11955 ft | 307 kts | 200° |
| 2026-05-04 19:18 | 48.86942 | 12.41724 | 11589 ft | 305 kts | 200° |
| 2026-05-04 19:18 | 48.84922 | 12.40656 | 11217 ft | 305 kts | 200° |
| 2026-05-04 19:19 | 48.82939 | 12.39607 | 10930 ft | 303 kts | 200° |
| 2026-05-04 19:19 | 48.80971 | 12.38471 | 10913 ft | 299 kts | 204° |
| 2026-05-04 19:19 | 48.79118 | 12.37183 | 10796 ft | 290 kts | 206° |
| 2026-05-04 19:19 | 48.77325 | 12.35856 | 10427 ft | 288 kts | 206° |
| 2026-05-04 19:20 | 48.75513 | 12.34527 | 10056 ft | 287 kts | 205° |
| 2026-05-04 19:20 | 48.73725 | 12.33254 | 9659 ft | 282 kts | 204° |
| 2026-05-04 19:20 | 48.71998 | 12.32049 | 9305 ft | 272 kts | 204° |
| 2026-05-04 19:20 | 48.70299 | 12.30878 | 8940 ft | 264 kts | 204° |
| 2026-05-04 19:21 | 48.68641 | 12.29735 | 8596 ft | 262 kts | 204° |
| 2026-05-04 19:21 | 48.66983 | 12.28596 | 8227 ft | 263 kts | 204° |
| 2026-05-04 19:21 | 48.65322 | 12.27459 | 7850 ft | 264 kts | 203° |
| 2026-05-04 19:21 | 48.63604 | 12.26517 | 7472 ft | 264 kts | 188° |
| 2026-05-04 19:22 | 48.61765 | 12.26407 | 7082 ft | 261 kts | 176° |
| 2026-05-04 19:22 | 48.60003 | 12.26591 | 6840 ft | 249 kts | 174° |
| 2026-05-04 19:22 | 48.58313 | 12.26801 | 6617 ft | 244 kts | 174° |
| 2026-05-04 19:22 | 48.56597 | 12.27015 | 6281 ft | 249 kts | 174° |
| 2026-05-04 19:23 | 48.54876 | 12.27223 | 5920 ft | 251 kts | 174° |
| 2026-05-04 19:23 | 48.53141 | 12.27426 | 5650 ft | 249 kts | 174° |
| 2026-05-04 19:23 | 48.51431 | 12.27614 | 5400 ft | 245 kts | 176° |
| 2026-05-04 19:23 | 48.49751 | 12.27250 | 5153 ft | 246 kts | 198° |
| 2026-05-04 19:24 | 48.48178 | 12.26262 | 4979 ft | 245 kts | 204° |
| 2026-05-04 19:24 | 48.46631 | 12.25180 | 4973 ft | 246 kts | 204° |
| 2026-05-04 19:24 | 48.45084 | 12.24092 | 4967 ft | 246 kts | 204° |
| 2026-05-04 19:24 | 48.43582 | 12.23037 | 4974 ft | 231 kts | 204° |
| 2026-05-04 19:25 | 48.42159 | 12.22040 | 4965 ft | 222 kts | 204° |
| 2026-05-04 19:25 | 48.40760 | 12.21060 | 4965 ft | 218 kts | 204° |
| 2026-05-04 19:25 | 48.39480 | 12.19991 | 4961 ft | 201 kts | 222° |
| 2026-05-04 19:25 | 48.38792 | 12.18322 | 4958 ft | 185 kts | 261° |
| 2026-05-04 19:26 | 48.38879 | 12.16450 | 4983 ft | 179 kts | 283° |
| 2026-05-04 19:26 | 48.39013 | 12.14636 | 4979 ft | 167 kts | 271° |
| 2026-05-04 19:26 | 48.38952 | 12.12952 | 4972 ft | 158 kts | 266° |
| 2026-05-04 19:26 | 48.38853 | 12.11302 | 4968 ft | 156 kts | 265° |
| 2026-05-04 19:27 | 48.38744 | 12.09674 | 4971 ft | 157 kts | 265° |
| 2026-05-04 19:27 | 48.38628 | 12.08039 | 4905 ft | 158 kts | 265° |
| 2026-05-04 19:27 | 48.38507 | 12.06391 | 4641 ft | 159 kts | 265° |
| 2026-05-04 19:27 | 48.38387 | 12.04779 | 4406 ft | 155 kts | 266° |
| 2026-05-04 19:28 | 48.38266 | 12.03147 | 4227 ft | 156 kts | 266° |
| 2026-05-04 19:28 | 48.38148 | 12.01531 | 3991 ft | 156 kts | 266° |
| 2026-05-04 19:28 | 48.38031 | 11.99972 | 3790 ft | 158 kts | 266° |
| 2026-05-04 19:28 | 48.37907 | 11.98310 | 3571 ft | 159 kts | 267° |
| 2026-05-04 19:29 | 48.37783 | 11.96650 | 3354 ft | 160 kts | 268° |
| 2026-05-04 19:29 | 48.37659 | 11.94986 | 3138 ft | 161 kts | 267° |
| 2026-05-04 19:29 | 48.37533 | 11.93323 | 2920 ft | 160 kts | 268° |
| 2026-05-04 19:29 | 48.37410 | 11.91685 | 2707 ft | 154 kts | 267° |
| 2026-05-04 19:30 | 48.37292 | 11.90110 | 2512 ft | 151 kts | 267° |
| 2026-05-04 19:30 | 48.37175 | 11.88546 | 2315 ft | 150 kts | 266° |
| 2026-05-04 19:30 | 48.37055 | 11.86973 | 2114 ft | 150 kts | 266° |
| 2026-05-04 19:30 | 48.36938 | 11.85437 | 1910 ft | 150 kts | 265° |
| 2026-05-04 19:31 | 48.36810 | 11.83876 | 1704 ft | 149 kts | 264° |
| 2026-05-04 19:31 | 48.36694 | 11.82329 | 1534 ft | 146 kts | 265° |
| 2026-05-04 19:31 | 48.36588 | 11.80849 | 1460 ft | 125 kts | 264° |
| 2026-05-04 19:31 | 48.36513 | 11.79873 | 1465 ft | 77 kts | 264° |
| 2026-05-04 19:32 | 48.36459 | 11.79149 | 1469 ft | 47 kts | 256° |
| 2026-05-04 19:32 | 48.36331 | 11.78776 | 1472 ft | 24 kts | 233° |
| 2026-05-04 19:32 | 48.36252 | 11.78605 | 1473 ft | 19 kts | 236° |
| 2026-05-04 19:32 | 48.36228 | 11.78552 | 1473 ft | 0 kts | 234° |
| 2026-05-04 19:33 | 48.36221 | 11.78538 | 1473 ft | 6 kts | 233° |
| 2026-05-04 19:33 | 48.36176 | 11.78448 | 1474 ft | 12 kts | 232° |
| 2026-05-04 19:33 | 48.36129 | 11.78339 | 1474 ft | 11 kts | 249° |
| 2026-05-04 19:33 | 48.36114 | 11.78220 | 1475 ft | 11 kts | 262° |
| 2026-05-04 19:34 | 48.36104 | 11.78106 | 1475 ft | 10 kts | 263° |
| 2026-05-04 19:34 | 48.36095 | 11.77995 | 1475 ft | 10 kts | 264° |
| 2026-05-04 19:34 | 48.36089 | 11.77889 | 1475 ft | 9 kts | 265° |
| 2026-05-04 19:34 | 48.36083 | 11.77784 | 1476 ft | 10 kts | 266° |
| 2026-05-04 19:35 | 48.36077 | 11.77702 | 1476 ft | 6 kts | 257° |
| 2026-05-04 19:35 | 48.36033 | 11.77661 | 1476 ft | 8 kts | 173° |
| 2026-05-04 19:35 | 48.35969 | 11.77678 | 1476 ft | 11 kts | 170° |
| 2026-05-04 19:35 | 48.35901 | 11.77695 | 1477 ft | 9 kts | 172° |
| 2026-05-04 19:36 | 48.35811 | 11.77707 | 1477 ft | 18 kts | 175° |
| 2026-05-04 19:36 | 48.35675 | 11.77726 | 1479 ft | 23 kts | 173° |
| 2026-05-04 19:36 | 48.35515 | 11.77753 | 1480 ft | 23 kts | 174° |
| 2026-05-04 19:36 | 48.35372 | 11.77781 | 1481 ft | 14 kts | 165° |
| 2026-05-04 19:37 | 48.35332 | 11.77882 | 1481 ft | 11 kts | 79° |
| 2026-05-04 19:37 | 48.35345 | 11.77999 | 1481 ft | 11 kts | 85° |
| 2026-05-04 19:37 | 48.35345 | 11.78122 | 1481 ft | 14 kts | 113° |
| 2026-05-04 19:37 | 48.35255 | 11.78180 | 1481 ft | 15 kts | 173° |
| 2026-05-04 19:38 | 48.35127 | 11.78200 | 1482 ft | 20 kts | 173° |
| 2026-05-04 19:38 | 48.34994 | 11.78226 | 1482 ft | 16 kts | 173° |
| 2026-05-04 19:38 | 48.34920 | 11.78227 | 1482 ft | 4 kts | 195° |
| 2026-05-04 19:38 | 48.34897 | 11.78229 | 1482 ft | 1 kts | 160° |
| 2026-05-04 19:39 | 48.34877 | 11.78270 | 1482 ft | 6 kts | 122° |
| 2026-05-04 19:39 | 48.34860 | 11.78330 | 1482 ft | 5 kts | 83° |
| 2026-05-04 19:39 | 48.34862 | 11.78377 | 1482 ft | 2 kts | 83° |
| 2026-05-04 19:39 | 48.34863 | 11.78386 | 1482 ft | 0 kts | 82° |